Hauptseite
METAR-TAF:

METAR-TAF

Flughäfen :

In Aménas, Algerien

Breite: 28-03N, Länge: 009-38E, Höhe: 562 m

Beobachtung

Neuester Wetterbericht von vor 41 Minuten, um 05:00 UTC
Wind 5 kt aus Nordost
Temperatur 26°C
Luftfeuchtigkeit 24%
Luftdruck 1013 hPa
Sichtweite 10 km oder mehr
keine Wolken unter 1500 m und keine Kumulonimbus oder Gewitterwolken

METAR: DAUZ 130500Z 05005KT CAVOK 26/04 Q1013

Zeit: 06:41 (05:41 UTC)

Prognose

Neuester Wetterbericht von vor 6 Stunden und 41 Minuten, um 23:00 UTC
Gültige Prognose vom 13 um 00 UTC bis 13 um 24 UTC
Wind 8 kt aus Ost/Südost
Sichtweite 10 km oder mehr
keine Wolken unter 1500 m und keine Kumulonimbus oder Gewitterwolken

TAF: DAUZ 122300Z 1300/1324 11008KT CAVOK

Wetterbeobachtungen und Prognosen von mehr als 4000 Flughäfen (METAR und TAF Bericht).

Die verfügbaren Stationen werden durch gelbe und rote Markierungen auf der Karte dargestellt.

Führen Sie die Maus auf sie, um den Namen der Station zu sehen.

Darauf klicken, um die Beobachtung von Wetterbeobachtungen und Prognosen zu sehen.

Um die Karte zu ändern : klicken Sie auf den grünen Tasten mit einem schwarzen Kreuz Zum Vergrößern, auf den grünen Button mit einem Gedankenstrich zu verkleinern, oder auf die grünen Pfeile für benachbarte Karten.


METAR-TAF: